• Join FlightAware (Why Join?)
  • Login
  • US Flag 
03:19PM EST


 

Airport Tracker/Info


-or-


 

Live Flight TrackerFlight Track Log ✈ N153DS ✈ 13-Oct-2012 ✈ SC7 - KAEG

Flight Track Log - Related Links

Times and Time Zones

All times are in EDT time to prevent confusion due to time zone crossing. See the N153DS flight status page for this flight to view local times or setup timezone preferences in your user account.

Time Position Orientation Groundspeed Altitude Reporting Facility
EDT Latitude Longitude Course Direction KTS MPH feet Rate Location/Type
01:39PM 33.8167 -116.3333 183° South 95 109 6,900  Level Southern California TRACON
01:40PM 33.8042 -116.3342 143° Southeast 97 112 7,000 420 Climbing Los Angeles Center
01:41PM 33.7844 -116.3161 107° East 92 106 7,500 420 Climbing Los Angeles Center
01:42PM 33.7775 -116.2889 89° East 92 106 7,900 420 Climbing Los Angeles Center
01:43PM 33.7781 -116.2550 87° East 91 105 8,400 360 Climbing Los Angeles Center
01:44PM 33.7792 -116.2261 95° East 94 108 8,700 480 Climbing Los Angeles Center
01:45PM 33.7904 -116.0197 265° West  Level FlightAware Approximate
01:45PM 33.7769 -116.1950 91° East 91 105 9,400  Level Los Angeles Center
01:46PM 33.7767 -116.1681 93° East 87 100 9,600 240 Climbing Los Angeles Center
01:47PM 33.7756 -116.1392 89° East 85 98 10,000 240 Climbing Los Angeles Center
01:48PM 33.7761 -116.1058 92° East 87 100 10,100 60 Climbing Los Angeles Center
01:49PM 33.7744 -116.0592 91° East 101 116 10,200  Climbing Los Angeles Center
01:50PM 33.7739 -116.0181 92° East 112 129 10,200 -60 Level Los Angeles Center
01:51PM 33.7728 -115.9750 91° East 120 138 10,100  Descending Los Angeles Center
01:52PM 33.7722 -115.9350 73° East 122 140 10,300 180 Climbing Los Angeles Center
01:53PM 33.7803 -115.9031 72° East 113 130 10,500 240 Climbing Los Angeles Center
01:54PM 33.7878 -115.8753 76° East 99 114 10,800 240 Climbing Los Angeles Center
01:55PM 33.7950 -115.8397 78° East 92 106 11,000 60 Climbing Los Angeles Center
01:56PM 33.8011 -115.8056 78° East 96 110 11,000 -60 Level Los Angeles Center
01:58PM 33.8014 -115.7587 78° East  Level FlightAware Approximate
02:05PM 33.8482 -115.4931 77° East  Level FlightAware Approximate
02:06PM 33.8549 -115.4552 77° East  Level FlightAware Approximate
02:07PM 33.8615 -115.4172 77° East  Level FlightAware Approximate
02:08PM 33.8681 -115.3792 77° East  Level FlightAware Approximate
02:09PM 33.8747 -115.3413 77° East  Level FlightAware Approximate
02:10PM 33.8813 -115.3033 77° East  Level FlightAware Approximate
02:11PM 33.8879 -115.2653 77° East  Level FlightAware Approximate
02:12PM 33.8945 -115.2273 76° East  Level FlightAware Approximate
02:13PM 33.9011 -115.1893 75° East  Level FlightAware Approximate
02:14PM 33.9076 -115.1513 73° East  Level FlightAware Approximate
02:14PM 33.9197 -115.1036 79° East 124 143 10,900  Level Los Angeles Center
02:15PM 33.9141 -115.1133 74° East  Level FlightAware Approximate
02:15PM 33.9264 -115.0628 78° East 124 143 10,900  Level Los Angeles Center
02:16PM 33.9207 -115.0753 77° East  Level FlightAware Approximate
02:17PM 33.9272 -115.0372 77° East  Level FlightAware Approximate
02:17PM 33.9356 -115.0077 78° East  Level FlightAware Approximate
02:18PM 33.9337 -114.9992 76° East  Level FlightAware Approximate
02:19PM 33.9276 -115.0360 77° East  Level FlightAware Approximate
02:19PM 33.9550 -114.8958 78° East 126 145 10,900  Level Albuquerque Center
02:20PM 33.9622 -114.8539 76° East 127 146 10,900  Level Albuquerque Center
02:21PM 33.9708 -114.8117 80° East 125 144 10,900  Level Los Angeles Center
02:22PM 33.9772 -114.7697 80° East 126 145 10,900  Level Los Angeles Center
02:23PM 33.9831 -114.7306 77° East 122 140 10,900  Level Los Angeles Center
02:24PM 33.9784 -114.7504 76° East  Level FlightAware Approximate
02:24PM 33.9908 -114.6894 79° East 125 144 10,900  Level Los Angeles Center
02:25PM 33.9989 -114.6414 80° East 123 142 10,900  Level Los Angeles Center
02:26PM 34.0042 -114.6036 78° East 124 143 10,900  Level Albuquerque Center
02:27PM 34.0114 -114.5625 78° East 125 144 10,900  Level Albuquerque Center
02:28PM 34.0183 -114.5219 80° East 125 144 10,900  Level Albuquerque Center
02:29PM 34.0239 -114.4822 75° East 124 143 10,900  Level Albuquerque Center
02:30PM 34.0342 -114.4356 81° East 130 150 10,900  Level Albuquerque Center
02:31PM 34.0397 -114.3944 78° East 128 147 10,900  Level Albuquerque Center
02:32PM 34.0467 -114.3547 79° East 124 143 10,900  Level Albuquerque Center
02:33PM 34.0544 -114.3053 79° East 124 143 10,900  Level Albuquerque Center
02:35PM 34.0608 -114.2650 78° East 123 142 10,900  Level Albuquerque Center
02:36PM 34.0669 -114.2289 77° East 124 143 11,000  Climbing Albuquerque Center
02:37PM 34.0761 -114.1803 79° East 125 144 11,000  Level Albuquerque Center
02:38PM 34.0828 -114.1392 80° East 124 143 11,000  Level Albuquerque Center
02:39PM 34.0889 -114.0978 80° East 125 144 11,000  Level Albuquerque Center
02:40PM 34.0947 -114.0575 80° East 124 143 11,000  Level Albuquerque Center
02:41PM 34.1006 -114.0186 76° East 121 139 11,000  Level Albuquerque Center
02:42PM 34.1092 -113.9783 79° East 121 139 11,000  Level Albuquerque Center
02:43PM 34.1156 -113.9375 79° East 123 142 11,000  Level Albuquerque Center
02:44PM 34.1233 -113.8886 80° East 124 143 11,000  Level Albuquerque Center
02:45PM 34.1294 -113.8478 80° East 124 143 11,000  Level Albuquerque Center
02:46PM 34.1353 -113.8072 80° East 123 142 11,000  Level Albuquerque Center
02:47PM 34.1414 -113.7661 79° East 123 142 11,000  Level Albuquerque Center
02:48PM 34.1478 -113.7250 78° East 124 143 11,100  Climbing Albuquerque Center
02:49PM 34.1550 -113.6839 79° East 125 144 11,100  Level Albuquerque Center
02:50PM 34.1633 -113.6328 84° East 126 145 11,100  Level Albuquerque Center
02:51PM 34.1658 -113.6042 78° East 123 142 11,100  Level Albuquerque Center
02:52PM 34.1747 -113.5553 79° East 123 142 11,100  Level Albuquerque Center
02:53PM 34.1817 -113.5136 79° East 124 143 11,100  Level Albuquerque Center
02:54PM 34.1886 -113.4719 80° East 125 144 11,100  Level Albuquerque Center
02:55PM 34.1950 -113.4289 79° East 128 147 11,100  Level Albuquerque Center
02:56PM 34.2014 -113.3872 79° East 127 146 11,100  Level Albuquerque Center
02:57PM 34.2081 -113.3461 59° Northeast 126 145 11,100  Level Albuquerque Center
02:58PM 34.2250 -113.3122 53° Northeast 118 136 11,100  Level Albuquerque Center
02:59PM 34.2497 -113.2731 54° Northeast 117 135 11,100  Level Albuquerque Center
03:00PM 34.2700 -113.2392 54° Northeast 121 139 11,100  Level Albuquerque Center
03:01PM 34.2886 -113.2081 60° Northeast 119 137 11,100  Level Albuquerque Center
03:02PM 34.3044 -113.1753 59° Northeast 114 131 11,100  Level Albuquerque Center
03:03PM 34.3203 -113.1428 57° Northeast 113 130 11,100  Level Albuquerque Center
03:04PM 34.3381 -113.1100 53° Northeast 114 131 11,100  Level Albuquerque Center
03:05PM 34.3581 -113.0778 55° Northeast 118 136 11,100  Level Albuquerque Center
03:06PM 34.3811 -113.0383 54° Northeast 119 137 11,100  Level Albuquerque Center
03:07PM 34.4014 -113.0050 53° Northeast 121 139 11,100 -60 Level Albuquerque Center
03:08PM 34.4200 -112.9747 53° Northeast 121 139 11,000 -60 Descending Albuquerque Center
03:09PM 34.4392 -112.9442 56° Northeast 119 137 11,000  Level Albuquerque Center
03:10PM 34.4608 -112.9053 55° Northeast 121 139 11,100  Climbing Albuquerque Center
03:12PM 34.4794 -112.8728 55° Northeast 120 138 11,100  Level Albuquerque Center
03:13PM 34.4983 -112.8403 55° Northeast 119 137 11,100  Level Albuquerque Center
03:14PM 34.5172 -112.8078 56° Northeast 118 136 11,100  Level Albuquerque Center
03:15PM 34.5381 -112.7697 59° Northeast 116 133 11,100  Level Albuquerque Center
03:16PM 34.5536 -112.7381 57° Northeast 113 130 11,100  Level Albuquerque Center
03:17PM 34.5706 -112.7067 51° Northeast 112 129 11,100 -60 Level Albuquerque Center
03:18PM 34.5922 -112.6747 58° Northeast 116 133 11,000 -60 Descending Albuquerque Center
03:19PM 34.6103 -112.6400 54° Northeast 118 136 11,000  Level Albuquerque Center
03:20PM 34.6300 -112.6072 56° Northeast 120 138 11,000  Level Albuquerque Center
03:21PM 34.6514 -112.5681 56° Northeast 118 136 11,000  Level Albuquerque Center
03:22PM 34.6689 -112.5361 56° Northeast 116 133 11,000  Level Albuquerque Center
03:23PM 34.6872 -112.5028 57° Northeast 117 135 11,000  Level Albuquerque Center
03:24PM 34.7047 -112.4706 87° East 117 135 11,000  Level Albuquerque Center
03:25PM 34.7064 -112.4272 88° East 133 153 11,000  Level Albuquerque Center
03:26PM 34.7075 -112.3847 87° East 128 147 11,000  Level Albuquerque Center
03:27PM 34.7094 -112.3408 85° East 124 143 11,000  Level Albuquerque Center
03:28PM 34.7125 -112.2994 84° East 123 142 11,000  Level Albuquerque Center
03:29PM 34.7167 -112.2497 79° East 123 142 11,000  Level Albuquerque Center
03:30PM 34.7228 -112.2097 84° East 121 139 11,000  Level Albuquerque Center
03:31PM 34.7267 -112.1681 86° East 123 142 11,000  Level Albuquerque Center
03:32PM 34.7292 -112.1281 84° East 122 140 11,000  Level Albuquerque Center
03:33PM 34.7328 -112.0872 84° East 121 139 11,000  Level Albuquerque Center
03:34PM 34.7361 -112.0467 84° East 121 139 11,000  Level Albuquerque Center
03:35PM 34.7394 -112.0075 66° East 119 137 11,000  Level Albuquerque Center
03:36PM 34.7522 -111.9728 51° Northeast 116 133 11,000  Level Albuquerque Center
03:37PM 34.7736 -111.9408 44° Northeast 115 132 11,000  Level Albuquerque Center
03:38PM 34.7958 -111.9147 44° Northeast 113 130 11,000  Level Albuquerque Center
03:39PM 34.8222 -111.8842 50° Northeast 111 128 11,000  Level Albuquerque Center
03:40PM 34.8414 -111.8558 58° Northeast 110 127 11,000  Level Albuquerque Center
03:41PM 34.8569 -111.8256 86° East 108 124 11,000  Level Albuquerque Center
03:42PM 34.8594 -111.7858 87° East 121 139 11,000  Level Albuquerque Center
03:43PM 34.8611 -111.7481 84° East 116 133 11,000  Level Albuquerque Center
03:44PM 34.8644 -111.7103 80° East 116 133 11,000  Level Albuquerque Center
03:45PM 34.8711 -111.6650 77° East 114 131 11,000  Level Albuquerque Center
03:46PM 34.8778 -111.6289 70° East 111 128 11,000  Level Albuquerque Center
03:47PM 34.8886 -111.5928 69° East 112 129 11,000  Level Albuquerque Center
03:49PM 34.8997 -111.5567 70° East 113 130 11,000  Level Albuquerque Center
03:50PM 34.9103 -111.5208 73° East 114 131 11,000  Level Albuquerque Center
03:51PM 34.9203 -111.4817 77° East 117 135 11,000  Level Albuquerque Center
03:52PM 34.9275 -111.4431 79° East 117 135 11,000  Level Albuquerque Center
03:53PM 34.9342 -111.4028 77° East 118 136 11,000  Level Albuquerque Center
03:54PM 34.9436 -111.3547 77° East 120 138 11,000  Level Albuquerque Center
03:55PM 34.9511 -111.3158 77° East 120 138 11,000  Level Albuquerque Center
03:56PM 34.9581 -111.2778 73° East 118 136 11,000  Level Albuquerque Center
03:57PM 34.9672 -111.2400 76° East 118 136 11,000  Level Albuquerque Center
03:58PM 34.9750 -111.2017 74° East 117 135 11,000  Level Albuquerque Center
03:59PM 34.9839 -111.1628 75° East 118 136 11,000  Level Albuquerque Center
04:00PM 34.9928 -111.1225 88° East 120 138 11,000  Level Albuquerque Center
04:01PM 34.9942 -111.0739 87° East 118 136 11,000  Level Albuquerque Center
04:02PM 34.9961 -111.0314 91° East 120 138 11,000  Level Albuquerque Center
04:03PM 34.9958 -110.9939 69° East 121 139 11,000  Level Albuquerque Center
04:05PM 35.0113 -110.9340 67° East  Level FlightAware Approximate
04:07PM 35.0519 -110.8172 70° East 126 145 11,000  Level Albuquerque Center
04:08PM 35.0625 -110.7822 88° East 118 136 11,000  Level Albuquerque Center
04:09PM 35.0636 -110.7428 97° East 117 135 11,000  Level Albuquerque Center
04:10PM 35.0589 -110.6933 97° East 121 139 11,000  Level Albuquerque Center
04:12PM 35.0445 -110.6713 61° Northeast  Level FlightAware Approximate
04:12PM 35.0544 -110.6492 97° East 127 146 11,000  Level Albuquerque Center
04:13PM 35.0426 -110.6329 75° East  Level FlightAware Approximate
04:13PM 35.0494 -110.6014 94° East 128 147 11,000  Level Albuquerque Center
04:14PM 35.0472 -110.5592 96° East 129 148 11,000  Level Albuquerque Center
04:15PM 35.0431 -110.5094 92° East 131 151 11,000  Level Albuquerque Center
04:16PM 35.0417 -110.4664 95° East 132 152 11,000  Level Albuquerque Center
04:17PM 35.0386 -110.4239 94° East 132 152 11,000  Level Albuquerque Center
04:18PM 35.0358 -110.3750 96° East 131 151 11,000  Level Albuquerque Center
04:19PM 35.0322 -110.3344 92° East 128 147 11,000  Level Albuquerque Center
04:20PM 35.0311 -110.2858 93° East 129 148 11,000  Level Albuquerque Center
04:21PM 35.0292 -110.2453 94° East 128 147 11,000  Level Albuquerque Center
04:22PM 35.0264 -110.1961 92° East 128 147 11,000  Level Albuquerque Center
04:23PM 35.0253 -110.1542 93° East 129 148 11,000  Level Albuquerque Center
04:24PM 35.0233 -110.1119 96° East 130 150 11,000  Level Albuquerque Center
04:25PM 35.0192 -110.0622 95° East 131 151 11,000  Level Albuquerque Center
04:26PM 35.0161 -110.0214 95° East 129 148 11,000  Level Albuquerque Center
04:27PM 35.0131 -109.9756 92° East 126 145 11,000  Level Albuquerque Center
04:28PM 35.0117 -109.9347 92° East 126 145 11,000  Level Albuquerque Center
04:29PM 35.0103 -109.8864 94° East 127 146 11,000  Level Albuquerque Center
04:30PM 35.0081 -109.8442 93° East 129 148 11,000  Level Albuquerque Center
04:31PM 35.0061 -109.8025 95° East 129 148 11,000  Level Albuquerque Center
04:32PM 35.0028 -109.7558 94° East 126 145 11,000  Level Albuquerque Center
04:33PM 35.0003 -109.7161 94° East 125 144 11,000  Level Albuquerque Center
04:34PM 34.9972 -109.6672 95° East 126 145 11,000  Level Albuquerque Center
04:35PM 34.9944 -109.6258 94° East 127 146 11,000  Level Albuquerque Center
04:36PM 34.9917 -109.5775 94° East 128 147 11,000  Level Albuquerque Center
04:37PM 34.9892 -109.5358 93° East 128 147 11,000  Level Albuquerque Center
04:38PM 34.9869 -109.4875 95° East 129 148 11,000  Level Albuquerque Center
04:39PM 34.9839 -109.4475 95° East 127 146 11,000  Level Albuquerque Center
04:40PM 34.9808 -109.4078 93° East 126 145 11,000  Level Albuquerque Center
04:41PM 34.9789 -109.3606 95° East 125 144 11,000  Level Albuquerque Center
04:42PM 34.9758 -109.3192 93° East 126 145 11,000  Level Albuquerque Center
04:43PM 34.9736 -109.2719 92° East 126 145 11,100  Climbing Albuquerque Center
04:44PM 34.9725 -109.2286 96° East 128 147 11,000 -60 Descending Albuquerque Center
04:45PM 34.9678 -109.1772 94° East 132 152 11,000  Level Albuquerque Center
04:46PM 34.9653 -109.1328 88° East 135 155 11,000  Level Albuquerque Center
04:47PM 34.9667 -109.0900 87° East 135 155 11,000  Level Albuquerque Center
04:48PM 34.9686 -109.0417 85° East 132 152 11,000  Level Albuquerque Center
04:50PM 34.9717 -109.0025 85° East 129 148 11,000  Level Albuquerque Center
04:51PM 34.9753 -108.9536 86° East 127 146 11,000  Level Albuquerque Center
04:52PM 34.9781 -108.9092 88° East 131 151 11,000  Level Albuquerque Center
04:53PM 34.9794 -108.8547 86° East 136 157 11,000  Level Albuquerque Center
04:54PM 34.9817 -108.8108 87° East 138 159 11,000  Level Albuquerque Center
04:55PM 34.9836 -108.7614 86° East 135 155 11,000  Level Albuquerque Center
04:56PM 34.9858 -108.7206 90° East 132 152 11,000  Level Albuquerque Center
04:57PM 34.9861 -108.6764 87° East 132 152 11,000  Level Albuquerque Center
04:58PM 34.9881 -108.6222 86° East 137 158 11,000  Level Albuquerque Center
04:59PM 34.9906 -108.5761 88° East 139 160 11,000  Level Albuquerque Center
05:00PM 34.9922 -108.5222 87° East 141 162 11,000  Level Albuquerque Center
05:01PM 34.9944 -108.4758 87° East 142 163 11,000  Level Albuquerque Center
05:02PM 34.9969 -108.4233 87° East 142 163 11,000  Level Albuquerque Center
05:03PM 34.9986 -108.3797 90° East 139 160 11,000  Level Albuquerque Center
05:04PM 34.9989 -108.3342 85° East 139 160 11,000  Level Albuquerque Center
05:05PM 35.0028 -108.2825 85° East 138 159 11,100  Climbing Albuquerque Center
05:06PM 35.0061 -108.2392 90° East 136 157 11,000 -60 Descending Albuquerque Center
05:07PM 35.0064 -108.1872 86° East 137 158 11,000 -60 Level Albuquerque Center
05:08PM 35.0092 -108.1408 86° East 140 161 10,900 -60 Descending Albuquerque Center
05:09PM 35.0125 -108.0872 86° East 142 163 10,900  Level Albuquerque Center
05:10PM 35.0153 -108.0414 89° East 142 163 11,000  Climbing Albuquerque Center
05:11PM 35.0161 -107.9911 83° East 141 162 10,900  Descending Albuquerque Center
05:12PM 35.0211 -107.9411 86° East 143 165 11,000  Climbing Albuquerque Center
05:13PM 35.0239 -107.8931 91° East 146 168 10,900 -60 Descending Albuquerque Center
05:14PM 35.0233 -107.8358 92° East 150 173 10,900 -60 Level Albuquerque Center
05:15PM 35.0219 -107.7869 90° East 148 170 10,800  Descending Albuquerque Center
05:16PM 35.0219 -107.7369 95° East 149 171 11,000 60 Climbing Albuquerque Center
05:17PM 35.0183 -107.6856 84° East 149 171 11,000 -60 Level Albuquerque Center
05:18PM 35.0228 -107.6331 83° East 154 177 10,900 -120 Descending Albuquerque Center
05:19PM 35.0275 -107.5836 92° East 148 170 10,800 -120 Descending Albuquerque Center
05:20PM 35.0269 -107.5681 85° East 143 165 10,800 60 Level Albuquerque Center
05:20PM 35.0289 -107.5383 96° East 143 165 10,900  Climbing Albuquerque Center
05:21PM 35.0269 -107.5164 86° East 129 148 10,800 60 Descending Albuquerque Center
05:21PM 35.0286 -107.4839 95° East 136 157 11,000 240 Climbing Albuquerque Center
05:22PM 35.0275 -107.4694 90° East 134 154 11,100 60 Climbing Albuquerque Center
05:22PM 35.0275 -107.4478 87° East 135 155 11,100 -120 Level Albuquerque Center
05:23PM 35.0286 -107.4253 93° East 130 150 11,000  Descending Albuquerque Center
05:23PM 35.0272 -107.3947 87° East 133 153 11,100 180 Climbing Albuquerque Center
05:24PM 35.0278 -107.3814 91° East 133 153 11,200  Climbing Albuquerque Center
05:24PM 35.0272 -107.3472 84° East 136 157 11,100 -180 Descending Albuquerque Center
05:25PM 35.0317 -107.2967 85° East 143 165 10,900 -60 Descending Albuquerque Center
05:27PM 35.0350 -107.2475 89° East 145 167 11,000 -120 Climbing Albuquerque Center
05:28PM 35.0356 -107.1969 78° East 147 169 10,700 -840 Descending Albuquerque Center
05:29PM 35.0447 -107.1439 73° East 155 178 9,400 -900 Descending Albuquerque Center
05:30PM 35.0589 -107.0875 78° East 147 169 8,900 -300 Descending Albuquerque Center
05:31PM 35.0675 -107.0389 69° East 147 169 8,900  Level Albuquerque Center
05:33PM 35.0899 -106.9687 75° East  Level Estimated
05:40PM 35.1309 -106.7837 75° East  Level FlightAware Approximate